HomeShort term forecast

Short term forecast

Graphical weather forecast for the next 48 hours for Montreal:
Short term forecast
This weather forecast is automatically refreshed every 3 hours.

Hourly Experimental Forecast for the next 48 hours

Overall summary: Clear throughout the day.

 Date & Hour   Temp   Feel   Baro   Hum   Speed & Bearing   Wind Gust   Precip.%   Precip.   Visibility   Cloud cover   Conditions 
 27/06/2022 - 17:00  22.6°C  22.6°C  1011.6 hPa  51%  24.2 km/h   42.1 km/h  0%  --  16.1km  27%  Clear 
 27/06/2022 - 18:00  22.1°C  22.1°C  1012.0 hPa  52%  21.2 km/h   38.1 km/h  0%  --  16.1km  27%  Clear 
 27/06/2022 - 19:00  21.5°C  21.5°C  1012.4 hPa  54%  18.0 km/h   34.0 km/h  0%  --  16.1km  27%  Clear 
 27/06/2022 - 20:00  20.9°C  20.9°C  1013.0 hPa  58%  14.9 km/h   31.9 km/h  0%  --  16.1km  28%  Clear 
 27/06/2022 - 21:00  19.6°C  19.6°C  1013.5 hPa  61%  12.7 km/h   24.4 km/h  0%  --  16.1km  26%  Clear 
 27/06/2022 - 22:00  18.6°C  18.6°C  1014.1 hPa  63%  11.6 km/h   23.1 km/h  0%  --  16.1km  26%  Clear 
 27/06/2022 - 23:00  17.7°C  17.7°C  1014.2 hPa  67%  10.6 km/h   22.2 km/h  0%  --  16.1km  26%  Clear 
 28/06/2022 - 00:00  17.1°C  17.1°C  1014.9 hPa  69%  10.0 km/h   20.0 km/h  0%  --  16.1km  51%  Partly Cloudy 
 28/06/2022 - 01:00  16.9°C  16.9°C  1014.9 hPa  70%  9.9 km/h   19.0 km/h  3%  0.01 mm/h  16.1km  49%  Partly Cloudy 
 28/06/2022 - 02:00  16.3°C  16.3°C  1015.1 hPa  71%  8.7 km/h   14.5 km/h  3%  0.01 mm/h  16.1km  38%  Partly Cloudy 
 28/06/2022 - 03:00  15.7°C  15.7°C  1015.6 hPa  73%  7.9 km/h   11.3 km/h  3%  0.01 mm/h  16.1km  38%  Partly Cloudy 
 28/06/2022 - 04:00  15.3°C  15.3°C  1016.2 hPa  73%  6.7 km/h   10.6 km/h  4%  0.01 mm/h  16.1km  68%  Mostly Cloudy 
 28/06/2022 - 05:00  15.2°C  15.2°C  1016.9 hPa  73%  6.2 km/h   11.5 km/h  5%  0.02 mm/h  16.1km  65%  Mostly Cloudy 
 28/06/2022 - 06:00  13.9°C  13.9°C  1017.7 hPa  75%  6.6 km/h   12.4 km/h  6%  0.01 mm/h  16.1km  61%  Mostly Cloudy 
 28/06/2022 - 07:00  14.7°C  14.7°C  1018.8 hPa  73%  6.6 km/h   11.5 km/h  0%  --  16.1km  52%  Partly Cloudy 
 28/06/2022 - 08:00  15.9°C  15.9°C  1019.6 hPa  71%  6.4 km/h   8.7 km/h  0%  --  16.1km  52%  Partly Cloudy 
 28/06/2022 - 09:00  17.1°C  17.1°C  1020.0 hPa  67%  6.4 km/h   9.3 km/h  0%  --  16.1km  35%  Partly Cloudy 
 28/06/2022 - 10:00  18.3°C  18.3°C  1020.0 hPa  63%  7.1 km/h   12.2 km/h  0%  --  16.1km  29%  Clear 
 28/06/2022 - 11:00  19.3°C  19.3°C  1020.0 hPa  58%  7.8 km/h   13.6 km/h  0%  --  16.1km  29%  Clear 
 28/06/2022 - 12:00  19.9°C  19.9°C  1020.0 hPa  56%  9.9 km/h   14.8 km/h  0%  --  16.1km  36%  Partly Cloudy 
 28/06/2022 - 13:00  20.5°C  20.5°C  1020.0 hPa  55%  12.3 km/h   16.3 km/h  0%  --  16.1km  35%  Partly Cloudy 
 28/06/2022 - 14:00  21.2°C  21.2°C  1020.1 hPa  54%  13.9 km/h   17.2 km/h  0%  --  16.1km  29%  Clear 
 28/06/2022 - 15:00  22.1°C  22.1°C  1019.9 hPa  51%  14.8 km/h   18.0 km/h  0%  --  16.1km  28%  Clear 
 28/06/2022 - 16:00  22.9°C  22.9°C  1019.8 hPa  50%  15.2 km/h   18.6 km/h  0%  --  16.1km  34%  Partly Cloudy 
 28/06/2022 - 17:00  23.3°C  23.3°C  1019.6 hPa  50%  14.9 km/h   19.0 km/h  0%  --  16.1km  23%  Clear 
 28/06/2022 - 18:00  23.2°C  23.2°C  1019.6 hPa  51%  14.0 km/h   19.4 km/h  0%  --  16.1km  7%  Clear 
 28/06/2022 - 19:00  22.7°C  22.7°C  1019.7 hPa  54%  12.2 km/h   19.8 km/h  0%  --  16.1km  11%  Clear 
 28/06/2022 - 20:00  21.4°C  21.4°C  1019.8 hPa  58%  10.4 km/h   15.4 km/h  0%  --  16.1km  13%  Clear 
 28/06/2022 - 21:00  20.0°C  20.0°C  1020.0 hPa  61%  10.2 km/h   16.5 km/h  0%  --  16.1km  12%  Clear 
 28/06/2022 - 22:00  18.7°C  18.7°C  1020.4 hPa  64%  10.4 km/h   21.5 km/h  0%  --  16.1km  9%  Clear 
 28/06/2022 - 23:00  17.8°C  17.8°C  1020.6 hPa  68%  10.5 km/h   24.0 km/h  0%  --  16.1km  7%  Clear 
 29/06/2022 - 00:00  17.2°C  17.2°C  1020.8 hPa  70%  10.9 km/h   25.4 km/h  0%  --  16.1km  6%  Clear 
 29/06/2022 - 01:00  16.7°C  16.7°C  1020.8 hPa  72%  11.6 km/h   26.5 km/h  0%  --  16.1km  5%  Clear 
 29/06/2022 - 02:00  16.2°C  16.2°C  1020.9 hPa  73%  11.8 km/h   27.3 km/h  0%  --  16.1km  3%  Clear 
 29/06/2022 - 03:00  15.4°C  15.4°C  1020.9 hPa  74%  10.9 km/h   24.7 km/h  0%  --  16.1km  2%  Clear 
 29/06/2022 - 04:00  14.6°C  14.6°C  1020.9 hPa  76%  9.8 km/h   23.0 km/h  0%  --  16.1km  1%  Clear 
 29/06/2022 - 05:00  14.1°C  14.1°C  1020.7 hPa  77%  8.6 km/h   18.6 km/h  0%  --  16.1km  6%  Clear 
 29/06/2022 - 06:00  14.5°C  14.5°C  1020.9 hPa  75%  8.4 km/h   18.4 km/h  0%  --  16.1km  10%  Clear 
 29/06/2022 - 07:00  15.9°C  15.9°C  1021.2 hPa  72%  8.6 km/h   17.3 km/h  0%  --  16.1km  23%  Clear 
 29/06/2022 - 08:00  17.5°C  17.5°C  1021.5 hPa  67%  9.4 km/h   19.3 km/h  0%  --  16.1km  36%  Partly Cloudy 
 29/06/2022 - 09:00  19.3°C  19.3°C  1021.4 hPa  63%  10.3 km/h   20.0 km/h  0%  --  16.1km  24%  Clear 
 29/06/2022 - 10:00  20.9°C  20.9°C  1021.0 hPa  59%  11.7 km/h   20.7 km/h  0%  --  16.1km  31%  Clear 
 29/06/2022 - 11:00  22.5°C  22.5°C  1020.6 hPa  54%  13.0 km/h   21.8 km/h  0%  --  16.1km  42%  Partly Cloudy 
 29/06/2022 - 12:00  23.6°C  23.6°C  1020.4 hPa  52%  13.5 km/h   22.4 km/h  0%  --  16.1km  53%  Partly Cloudy 
 29/06/2022 - 13:00  23.9°C  23.9°C  1020.0 hPa  51%  13.7 km/h   23.8 km/h  2%  0.01 mm/h  16.1km  65%  Mostly Cloudy 
 29/06/2022 - 14:00  23.0°C  23.0°C  1019.1 hPa  54%  13.4 km/h   26.7 km/h  9%  0.14 mm/h  16.1km  75%  Mostly Cloudy 
 29/06/2022 - 15:00  22.5°C  22.5°C  1018.8 hPa  58%  15.0 km/h   29.6 km/h  12%  0.15 mm/h  16.1km  86%  Mostly Cloudy 
 29/06/2022 - 16:00  21.6°C  21.6°C  1018.4 hPa  64%  15.1 km/h   32.2 km/h  26%  0.46 mm/h  16.1km  91%  Possible Light Rain 

 

Past weather and reports

Past weatherFind in this section the past weather conditions, weather archive, graphics, reports and statistics.

Current conditions

Current weather condition for MontrealAll you need to know about the current weather conditions for Montreal. Weather data is updated every 10 minutes.

Weather forecast

Current Montreal weatherSince 2004, celinium.com website has provided accurate weather forecast for Montreal's island.